Time;durP1;ratioP1;P1;durP2;ratioP2;P2;SDS_P1;SDS_P2;PMS_P1;PMS_P2;Temp;Humidity;BMP_temperature;BMP_pressure;BME280_temperature;BME280_humidity;BME280_pressure;Samples;Min_cycle;Max_cycle;Signal;HPM_P1;HPM_P2
2022/01/24 00:01:23;;;;;;;10.75;7.53;;;0.90;99.90;;;;;;6159328;28;20023;-83
2022/01/24 00:04:24;;;;;;;10.45;6.93;;;1.30;99.90;;;;;;6143251;28;20381;-83
2022/01/24 00:07:25;;;;;;;10.15;6.68;;;0.00;99.90;;;;;;6143320;28;20038;-82
2022/01/24 00:10:27;;;;;;;9.52;6.43;;;1.90;99.90;;;;;;6158202;28;20058;-81
2022/01/24 00:14:14;;;;;;;8.93;6.53;;;1.90;99.90;;;;;;6158249;28;20031;-83
2022/01/24 00:26:47;;;;;;;11.73;7.53;;;0.10;99.90;;;;;;6160861;28;20038;-81
2022/01/24 00:29:47;;;;;;;13.23;7.55;;;2.10;99.90;;;;;;6157634;28;20517;-82
2022/01/24 00:32:48;;;;;;;11.82;7.65;;;1.50;99.90;;;;;;6141862;28;20035;-83
2022/01/24 00:35:50;;;;;;;9.32;6.38;;;2.40;99.90;;;;;;6141528;28;20470;-82
2022/01/24 00:38:51;;;;;;;9.73;6.00;;;0.30;99.90;;;;;;6157761;28;20034;-82
2022/01/24 00:48:29;;;;;;;9.02;6.03;;;0.90;99.90;;;;;;6158978;28;20061;-82
2022/01/24 00:54:52;;;;;;;8.95;6.00;;;-0.60;99.90;;;;;;6159845;28;20031;-82
2022/01/24 00:57:52;;;;;;;8.32;5.82;;;1.00;99.90;;;;;;6141431;28;20039;-81
2022/01/24 01:00:53;;;;;;;8.25;5.30;;;0.60;99.90;;;;;;6156743;28;20466;-83
2022/01/24 01:03:54;;;;;;;7.90;5.40;;;-0.70;99.90;;;;;;6140893;28;20038;-83
2022/01/24 01:06:55;;;;;;;7.07;5.00;;;2.10;99.90;;;;;;6140638;28;20035;-84
2022/01/24 01:19:53;;;;;;;8.18;5.72;;;-0.70;99.90;;;;;;6159997;28;20027;-81
2022/01/24 01:22:53;;;;;;;4.90;3.92;;;1.20;99.90;;;;;;6157076;28;20050;-84
2022/01/24 01:25:55;;;;;;;8.43;5.40;;;-0.40;99.90;;;;;;6156591;28;20034;-82
2022/01/24 01:29:01;;;;;;;8.38;5.30;;;1.80;99.90;;;;;;6140856;28;20039;-84
2022/01/24 01:32:16;;;;;;;7.80;5.45;;;;;;;;;;6141020;28;20045;-81
2022/01/24 01:55:16;;;;;;;7.57;5.63;;;-0.90;99.90;;;;;;6158930;28;20030;-85
2022/01/24 01:58:12;;;;;;;8.45;6.32;;;-0.80;99.90;;;;;;6158202;28;20045;-82
2022/01/24 02:01:13;;;;;;;8.73;5.28;;;1.00;99.90;;;;;;6139761;28;20042;-84
2022/01/24 02:04:14;;;;;;;8.63;5.82;;;1.40;99.90;;;;;;6139938;28;20031;-84
2022/01/24 02:07:15;;;;;;;10.17;5.93;;;1.30;99.90;;;;;;6139794;28;20037;-83
2022/01/24 02:10:17;;;;;;;11.55;5.85;;;-1.10;99.90;;;;;;6138851;28;20042;-83
2022/01/24 02:13:17;;;;;;;8.52;5.97;;;-1.00;99.90;;;;;;6138931;28;20031;-83
2022/01/24 02:16:34;;;;;;;9.82;6.25;;;0.90;99.90;;;;;;6155160;28;20432;-83
2022/01/24 02:25:38;;;;;;;8.52;5.70;;;0.70;99.90;;;;;;6155583;28;20031;-82
2022/01/24 02:28:54;;;;;;;8.18;5.55;;;0.80;99.90;;;;;;6154712;28;20081;-83
2022/01/24 02:31:56;;;;;;;8.48;5.78;;;0.50;99.90;;;;;;6157186;28;20066;-82
2022/01/24 02:34:56;;;;;;;8.15;5.63;;;-1.60;99.90;;;;;;6138268;28;20113;-83
2022/01/24 02:38:01;;;;;;;8.68;5.60;;;0.10;99.90;;;;;;6154598;28;20066;-84
2022/01/24 02:54:01;;;;;;;8.77;5.80;;;-1.40;99.90;;;;;;6154634;28;20038;-83
2022/01/24 02:57:02;;;;;;;8.20;5.82;;;-0.30;99.90;;;;;;6154628;28;20058;-83
2022/01/24 03:00:03;;;;;;;6.97;5.13;;;-1.60;99.90;;;;;;6154411;28;20046;-85
2022/01/24 03:03:04;;;;;;;6.95;5.85;;;-1.70;99.90;;;;;;6154629;28;20432;-82
2022/01/24 03:06:05;;;;;;;7.68;5.55;;;-1.00;99.90;;;;;;6154318;28;20023;-86
2022/01/24 03:09:06;;;;;;;8.80;5.75;;;;;;;;;;6138334;28;20038;-84
2022/01/24 03:12:12;;;;;;;10.15;6.30;;;-1.60;99.90;;;;;;6154076;28;20142;-83
2022/01/24 03:15:13;;;;;;;11.07;6.57;;;-1.60;99.90;;;;;;6154465;28;20184;-84
2022/01/24 03:18:14;;;;;;;13.25;8.35;;;-1.90;99.90;;;;;;6137874;28;20034;-83
2022/01/24 03:21:19;;;;;;;12.82;8.25;;;-1.70;99.90;;;;;;6137746;28;20385;-84
2022/01/24 03:24:19;;;;;;;11.88;6.60;;;-1.30;99.90;;;;;;6154079;28;20034;-85
2022/01/24 03:27:20;;;;;;;14.52;8.07;;;-1.70;99.90;;;;;;6138025;28;20121;-84
2022/01/24 03:30:21;;;;;;;13.23;7.70;;;-2.40;99.90;;;;;;6138092;28;20074;-85
2022/01/24 03:33:22;;;;;;;9.40;6.97;;;-2.50;99.90;;;;;;6153287;28;20045;-83
2022/01/24 03:36:23;;;;;;;10.07;6.68;;;0.50;99.90;;;;;;6153982;28;20469;-84
2022/01/24 03:39:23;;;;;;;12.48;7.22;;;-1.20;99.90;;;;;;6153692;28;20105;-84
2022/01/24 03:42:24;;;;;;;36.42;16.02;;;-1.10;99.90;;;;;;6154802;28;20053;-85
2022/01/24 03:45:38;;;;;;;12.45;7.82;;;-1.90;99.90;;;;;;6138637;28;20037;-85
2022/01/24 03:48:48;;;;;;;60.00;22.33;;;-1.70;99.90;;;;;;6140701;28;20077;-83
2022/01/24 03:51:49;;;;;;;32.58;14.20;;;;;;;;;;6139550;28;20504;-83
2022/01/24 03:54:50;;;;;;;15.45;8.55;;;-1.90;99.90;;;;;;6138167;28;20026;-85
2022/01/24 03:57:50;;;;;;;13.77;7.55;;;0.10;99.90;;;;;;6137723;28;20023;-85
2022/01/24 04:00:51;;;;;;;11.05;6.90;;;-1.90;99.90;;;;;;6137868;28;20453;-86
2022/01/24 04:03:52;;;;;;;15.13;8.27;;;-0.20;99.90;;;;;;6137829;28;20085;-84
2022/01/24 04:06:52;;;;;;;37.50;16.05;;;-2.20;99.90;;;;;;6137690;28;20034;-84
2022/01/24 04:09:53;;;;;;;15.77;8.48;;;-2.40;99.90;;;;;;6137745;28;20070;-85
2022/01/24 04:12:54;;;;;;;31.60;12.15;;;-1.10;99.90;;;;;;6154195;28;20054;-84
2022/01/24 04:21:19;;;;;;;15.32;9.23;;;-2.30;99.90;;;;;;6155933;28;20023;-82
2022/01/24 04:22:51;;;;;;;10.35;5.72;;;0.40;99.90;;;;;;6158984;28;20031;-83
2022/01/24 04:25:52;;;;;;;13.23;7.85;;;-0.90;99.90;;;;;;6154069;28;20034;-84
2022/01/24 04:28:53;;;;;;;17.30;9.02;;;-2.50;99.90;;;;;;6153766;28;20093;-83
2022/01/24 04:31:53;;;;;;;11.05;6.65;;;-1.20;99.90;;;;;;6137722;28;20031;-83
2022/01/24 04:34:54;;;;;;;24.73;9.38;;;-2.60;99.90;;;;;;6153163;28;20043;-84
2022/01/24 04:37:54;;;;;;;13.68;7.40;;;-0.40;99.90;;;;;;6152786;28;20082;-84
2022/01/24 04:41:00;;;;;;;72.15;25.77;;;0.60;99.90;;;;;;6153115;28;20134;-82
2022/01/24 04:47:32;;;;;;;9.50;5.82;;;-2.40;99.90;;;;;;6157554;28;20030;-84
2022/01/24 04:56:43;;;;;;;9.63;6.13;;;-1.30;99.90;;;;;;6157170;28;20030;-84
2022/01/24 04:59:47;;;;;;;8.43;5.55;;;-1.30;99.90;;;;;;6140841;28;20035;-83
2022/01/24 05:02:47;;;;;;;9.88;5.78;;;-0.90;99.90;;;;;;6141016;28;20037;-82
2022/01/24 05:05:49;;;;;;;7.65;5.03;;;0.20;99.90;;;;;;6140925;28;20766;-83
2022/01/24 05:08:50;;;;;;;8.45;5.82;;;-1.90;99.90;;;;;;6140916;28;20394;-82
2022/01/24 05:24:32;;;;;;;8.57;6.20;;;-1.80;99.90;;;;;;6149210;28;20038;-87
2022/01/24 05:27:32;;;;;;;9.40;7.43;;;-1.80;99.90;;;;;;6132888;28;20039;-87
2022/01/24 05:30:33;;;;;;;8.90;5.78;;;;;;;;;;6150160;28;20066;-82
2022/01/24 05:33:34;;;;;;;14.80;9.52;;;-1.90;99.90;;;;;;6132299;29;20118;-83
2022/01/24 05:36:35;;;;;;;9.90;6.78;;;;;;;;;;6132729;28;20052;-86
2022/01/24 05:39:35;;;;;;;12.55;7.97;;;-1.90;99.90;;;;;;6132671;28;20404;-84
2022/01/24 05:42:36;;;;;;;11.73;8.10;;;-1.10;99.90;;;;;;6148311;28;20039;-85
2022/01/24 05:45:37;;;;;;;21.50;13.00;;;-1.90;99.90;;;;;;6132713;29;20398;-84
2022/01/24 05:48:38;;;;;;;14.75;8.65;;;;;;;;;;6132049;29;20027;-84
2022/01/24 05:51:39;;;;;;;22.33;14.50;;;-1.90;99.90;;;;;;6132556;29;20031;-83
2022/01/24 05:54:40;;;;;;;24.40;15.32;;;-2.00;99.90;;;;;;6132713;28;20030;-89
2022/01/24 05:57:40;;;;;;;12.73;9.80;;;-2.60;99.90;;;;;;6147683;28;20114;-82
2022/01/24 06:00:41;;;;;;;13.32;8.07;;;-1.40;99.90;;;;;;6147892;28;20118;-83
2022/01/24 06:03:41;;;;;;;13.73;9.02;;;-2.00;99.90;;;;;;6131695;29;20082;-85
2022/01/24 06:06:42;;;;;;;11.65;8.40;;;-1.40;99.90;;;;;;6131992;29;20059;-81
2022/01/24 06:09:42;;;;;;;14.05;8.95;;;0.20;99.90;;;;;;6147752;28;20477;-82
2022/01/24 06:12:44;;;;;;;12.85;9.75;;;-2.60;99.90;;;;;;6147813;28;20102;-79
2022/01/24 06:15:45;;;;;;;11.95;8.73;;;-2.60;99.90;;;;;;6130466;29;20163;-84
2022/01/24 06:18:45;;;;;;;15.55;10.10;;;-1.90;99.90;;;;;;6147466;28;20028;-80
2022/01/24 06:21:46;;;;;;;10.75;8.00;;;0.30;99.90;;;;;;6146835;29;20521;-79
2022/01/24 06:24:47;;;;;;;12.90;9.60;;;-2.00;99.90;;;;;;6130838;29;20063;-77
2022/01/24 06:27:48;;;;;;;18.60;13.80;;;-0.60;99.90;;;;;;6146537;29;20480;-80
2022/01/24 06:30:48;;;;;;;16.42;10.57;;;-2.80;99.90;;;;;;6130689;28;20043;-81
2022/01/24 06:33:49;;;;;;;15.85;10.90;;;-2.50;99.90;;;;;;6146376;29;20090;-82
2022/01/24 06:36:49;;;;;;;17.00;9.95;;;-2.90;99.90;;;;;;6129247;29;20058;-80
2022/01/24 06:39:50;;;;;;;12.35;9.35;;;-0.50;99.90;;;;;;6145907;28;20390;-78
2022/01/24 06:42:50;;;;;;;16.58;10.57;;;-1.90;99.90;;;;;;6145956;28;20107;-76
2022/01/24 06:45:51;;;;;;;23.00;11.80;;;-2.70;99.90;;;;;;6129743;29;20062;-77
2022/01/24 06:48:52;;;;;;;18.77;10.15;;;-2.80;99.90;;;;;;6145855;29;20079;-78
2022/01/24 06:51:52;;;;;;;31.48;18.23;;;-2.50;99.90;;;;;;6145889;28;20027;-77
2022/01/24 06:54:53;;;;;;;12.30;9.07;;;-1.20;99.90;;;;;;6128169;28;20039;-77
2022/01/24 06:57:54;;;;;;;11.50;8.35;;;-2.10;99.90;;;;;;6145099;28;20079;-79
2022/01/24 07:00:54;;;;;;;10.18;7.60;;;0.10;99.90;;;;;;6129042;29;20031;-78
2022/01/24 07:03:55;;;;;;;9.95;6.45;;;-2.90;99.90;;;;;;6145379;28;20030;-79
2022/01/24 07:06:56;;;;;;;10.45;7.03;;;-1.40;99.90;;;;;;6145222;29;20113;-77
2022/01/24 07:09:56;;;;;;;9.60;7.05;;;-2.10;99.90;;;;;;6144821;28;20043;-78
2022/01/24 07:12:57;;;;;;;13.93;8.35;;;-3.00;99.90;;;;;;6145502;28;20078;-79
2022/01/24 07:16:04;;;;;;;14.88;8.95;;;-1.00;99.90;;;;;;6145376;29;20039;-78
2022/01/24 07:19:04;;;;;;;12.48;8.40;;;-1.40;99.90;;;;;;6145814;28;20027;-78
2022/01/24 07:22:05;;;;;;;13.52;7.38;;;-1.90;99.90;;;;;;6145533;28;20031;-78
2022/01/24 07:25:06;;;;;;;12.20;8.85;;;-2.20;99.90;;;;;;6145568;29;20027;-78
2022/01/24 07:28:07;;;;;;;14.77;10.00;;;-2.20;99.90;;;;;;6145290;28;20031;-80
2022/01/24 07:31:07;;;;;;;20.13;10.18;;;-2.20;99.90;;;;;;6128954;29;20051;-80
2022/01/24 07:34:08;;;;;;;26.55;12.38;;;-2.80;99.90;;;;;;6145319;29;20038;-77
2022/01/24 07:37:08;;;;;;;21.50;12.93;;;-2.40;99.90;;;;;;6144958;29;20035;-78
2022/01/24 07:40:11;;;;;;;14.82;9.68;;;-0.30;99.90;;;;;;6129354;28;20425;-78
2022/01/24 07:43:12;;;;;;;16.95;8.98;;;-2.40;99.90;;;;;;6128717;29;20470;-78
2022/01/24 07:46:13;;;;;;;13.27;8.27;;;-2.40;99.90;;;;;;6146818;28;20082;-77
2022/01/24 07:49:13;;;;;;;12.25;7.85;;;-1.30;99.90;;;;;;6145041;28;20043;-79
2022/01/24 07:52:14;;;;;;;12.10;8.40;;;-1.30;99.90;;;;;;6145116;29;20031;-78
2022/01/24 07:55:14;;;;;;;13.40;8.68;;;-0.70;99.90;;;;;;6129080;29;20038;-79
2022/01/24 07:58:15;;;;;;;12.45;8.95;;;0.80;99.90;;;;;;6129091;28;20031;-78
2022/01/24 08:01:16;;;;;;;13.73;9.73;;;3.50;99.90;;;;;;6144943;29;20462;-78
2022/01/24 08:04:16;;;;;;;17.17;10.60;;;2.50;99.90;;;;;;6144659;29;20028;-80
2022/01/24 08:07:17;;;;;;;15.10;9.10;;;2.30;99.90;;;;;;6145149;28;20469;-79
2022/01/24 08:10:18;;;;;;;13.23;8.55;;;3.50;99.90;;;;;;6144877;28;20046;-78
2022/01/24 08:13:18;;;;;;;13.32;8.82;;;4.30;99.90;;;;;;6152443;28;20026;-81
2022/01/24 08:16:19;;;;;;;13.63;9.45;;;4.00;99.90;;;;;;6152373;28;20043;-78
2022/01/24 08:19:19;;;;;;;14.63;9.18;;;4.20;99.90;;;;;;6152769;28;20465;-79
2022/01/24 08:22:20;;;;;;;13.13;9.55;;;4.90;99.90;;;;;;6157097;28;20058;-78
2022/01/24 08:25:21;;;;;;;12.75;9.80;;;5.20;99.90;;;;;;6156881;28;20038;-78
2022/01/24 08:28:21;;;;;;;11.25;8.40;;;5.70;99.90;;;;;;6157211;28;20412;-80
2022/01/24 08:31:22;;;;;;;9.90;7.75;;;5.80;99.90;;;;;;6140503;28;20485;-79
2022/01/24 08:34:22;;;;;;;8.90;7.47;;;6.30;99.90;;;;;;6157197;28;20030;-79
2022/01/24 08:37:23;;;;;;;10.45;7.18;;;6.60;99.90;;;;;;6156935;28;20081;-79
2022/01/24 08:40:26;;;;;;;8.98;7.13;;;7.00;99.90;;;;;;6140697;28;20150;-79
2022/01/24 08:43:51;;;;;;;11.40;7.75;;;7.10;98.80;;;;;;6140719;28;20035;-78
2022/01/24 08:46:51;;;;;;;17.95;13.63;;;7.20;99.00;;;;;;6160459;28;20027;-79
2022/01/24 08:49:52;;;;;;;9.75;6.57;;;7.50;96.90;;;;;;6156525;28;20074;-79
2022/01/24 08:52:59;;;;;;;7.47;5.65;;;7.30;97.40;;;;;;6140395;28;20042;-80
2022/01/24 08:56:00;;;;;;;7.75;5.60;;;7.50;96.70;;;;;;6157128;28;20113;-79
2022/01/24 08:59:03;;;;;;;7.97;5.53;;;7.90;95.90;;;;;;6140734;28;20118;-79
2022/01/24 09:02:03;;;;;;;7.38;6.03;;;7.90;95.20;;;;;;6140175;28;20074;-79
2022/01/24 09:05:04;;;;;;;6.38;4.93;;;8.40;95.30;;;;;;6156441;28;20485;-80
2022/01/24 09:08:05;;;;;;;7.85;5.53;;;8.50;93.80;;;;;;6156485;28;20031;-79
2022/01/24 09:11:06;;;;;;;9.23;6.00;;;8.50;93.50;;;;;;6155904;28;20394;-79
2022/01/24 09:14:07;;;;;;;8.82;5.53;;;8.80;92.80;;;;;;6156152;28;20476;-79
2022/01/24 09:17:07;;;;;;;7.43;6.00;;;9.00;92.40;;;;;;6139714;28;20030;-79
2022/01/24 09:20:09;;;;;;;6.88;5.90;;;9.00;92.30;;;;;;6156027;28;20113;-79
2022/01/24 09:23:09;;;;;;;7.95;5.85;;;9.30;92.40;;;;;;6155848;28;20031;-79
2022/01/24 09:26:10;;;;;;;7.78;5.97;;;9.30;91.60;;;;;;6139759;28;20042;-79
2022/01/24 09:29:11;;;;;;;8.18;6.18;;;9.40;91.50;;;;;;6155613;28;20394;-80
2022/01/24 09:32:11;;;;;;;9.43;6.95;;;9.50;91.20;;;;;;6155019;28;20043;-80
2022/01/24 09:35:12;;;;;;;11.50;7.95;;;9.60;90.70;;;;;;6155713;28;20035;-79
2022/01/24 09:38:12;;;;;;;10.30;8.30;;;9.60;91.40;;;;;;6155771;28;20035;-78
2022/01/24 09:41:13;;;;;;;11.15;8.60;;;9.70;91.10;;;;;;6139387;28;20078;-79
2022/01/24 09:44:14;;;;;;;12.85;8.38;;;9.50;91.10;;;;;;6155498;28;20031;-79
2022/01/24 09:47:15;;;;;;;12.30;8.25;;;9.60;90.80;;;;;;6139243;28;20030;-79
2022/01/24 09:50:18;;;;;;;12.00;8.40;;;9.80;90.80;;;;;;6155004;28;20114;-79
2022/01/24 09:53:23;;;;;;;8.68;6.75;;;9.70;89.90;;;;;;6139326;28;20033;-78
2022/01/24 09:56:24;;;;;;;10.82;7.88;;;10.10;89.20;;;;;;6155184;28;20027;-78
2022/01/24 09:59:25;;;;;;;9.80;6.88;;;10.10;89.50;;;;;;6138918;28;20054;-79
2022/01/24 10:02:26;;;;;;;9.02;7.50;;;10.40;88.20;;;;;;6155262;28;20038;-80
2022/01/24 10:05:33;;;;;;;11.15;7.57;;;10.20;89.50;;;;;;6138466;28;20027;-79
2022/01/24 10:08:35;;;;;;;10.60;8.02;;;10.20;87.70;;;;;;6155052;28;20054;-79
2022/01/24 10:11:35;;;;;;;8.98;6.85;;;10.50;87.60;;;;;;6138852;28;20062;-79
2022/01/24 10:18:04;;;;;;;10.32;7.93;;;10.90;84.80;;;;;;6157735;28;20117;-79
2022/01/24 10:21:15;;;;;;;11.27;7.97;;;11.30;84.60;;;;;;6154588;28;20458;-79
2022/01/24 10:24:28;;;;;;;10.10;8.73;;;11.60;83.00;;;;;;6138479;28;20031;-80
2022/01/24 10:27:29;;;;;;;10.43;8.10;;;12.10;80.10;;;;;;6154233;28;20037;-80
2022/01/24 10:30:30;;;;;;;11.07;8.82;;;12.70;78.30;;;;;;6138271;28;20043;-80
2022/01/24 10:33:31;;;;;;;12.55;8.63;;;13.10;76.00;;;;;;6138199;28;20117;-81
2022/01/24 10:36:41;;;;;;;13.73;9.27;;;13.50;73.90;;;;;;6154868;28;20576;-79
2022/01/24 10:42:52;;;;;;;11.15;9.13;;;13.60;71.10;;;;;;6154254;28;20026;-80
2022/01/24 10:45:54;;;;;;;10.30;8.90;;;13.70;70.60;;;;;;6156079;28;20031;-78
2022/01/24 10:49:03;;;;;;;11.35;9.00;;;14.10;71.50;;;;;;6154019;28;20034;-78
2022/01/24 10:52:12;;;;;;;12.13;9.52;;;13.90;70.80;;;;;;6154205;28;20067;-81
2022/01/24 10:55:17;;;;;;;13.75;11.38;;;14.10;70.70;;;;;;6137394;28;20122;-80
2022/01/24 10:58:18;;;;;;;12.38;10.02;;;13.90;71.10;;;;;;6137508;28;20031;-80
2022/01/24 11:01:26;;;;;;;11.73;9.98;;;13.70;71.70;;;;;;6153890;28;20138;-80
2022/01/24 11:04:27;;;;;;;11.85;9.75;;;13.60;72.00;;;;;;6138390;28;20470;-80
2022/01/24 11:07:27;;;;;;;13.23;10.75;;;13.90;71.40;;;;;;6137319;28;20071;-80
2022/01/24 11:10:33;;;;;;;13.25;11.02;;;13.40;72.20;;;;;;6153284;28;20121;-79
2022/01/24 11:13:36;;;;;;;14.43;11.63;;;13.10;72.80;;;;;;6138190;28;20038;-80
2022/01/24 11:16:37;;;;;;;;;;;12.80;74.10;;;;;;6153760;28;20377;-78
2022/01/24 11:19:46;;;;;;;14.15;11.45;;;12.70;74.40;;;;;;6136438;28;19920;-82
2022/01/24 11:22:52;;;;;;;16.02;11.85;;;12.40;75.00;;;;;;6154902;28;20181;-80
2022/01/24 11:25:56;;;;;;;14.70;11.10;;;12.10;76.10;;;;;;6153633;28;20051;-79
2022/01/24 11:28:57;;;;;;;14.80;11.55;;;12.00;77.30;;;;;;6153685;28;20048;-80
2022/01/24 11:32:02;;;;;;;14.57;11.07;;;11.70;77.50;;;;;;6153193;28;20039;-80
2022/01/24 11:35:03;;;;;;;16.30;11.63;;;11.60;79.30;;;;;;6153029;28;20094;-80
2022/01/24 11:38:04;;;;;;;12.88;10.95;;;11.60;79.40;;;;;;6153345;28;20026;-80
2022/01/24 11:41:13;;;;;;;15.30;11.65;;;11.30;80.20;;;;;;6137044;28;20034;-80
2022/01/24 11:44:16;;;;;;;15.15;11.40;;;11.00;82.70;;;;;;6153500;28;20027;-79
2022/01/24 11:47:22;;;;;;;15.00;12.23;;;11.00;82.30;;;;;;6137432;28;20027;-80
2022/01/24 11:50:26;;;;;;;23.25;12.80;;;10.70;83.10;;;;;;6153033;28;20527;-78
2022/01/24 11:53:29;;;;;;;20.13;12.85;;;10.50;84.10;;;;;;6169978;28;20038;-80
2022/01/24 11:56:31;;;;;;;16.67;12.95;;;10.30;86.00;;;;;;6142571;28;20042;-79
2022/01/24 11:59:31;;;;;;;;;;;10.30;85.90;;;;;;6160708;28;20493;-79
2022/01/24 12:02:38;;;;;;;17.52;12.05;;;9.90;86.70;;;;;;6143059;28;20551;-78
2022/01/24 12:05:44;;;;;;;16.13;12.55;;;9.60;89.30;;;;;;6177614;28;20027;-79
2022/01/24 12:08:47;;;;;;;17.10;12.45;;;9.60;89.90;;;;;;6144839;28;20066;-78
2022/01/24 12:11:47;;;;;;;20.92;14.13;;;9.30;90.10;;;;;;6144633;28;20071;-77
2022/01/24 12:14:48;;;;;;;19.67;13.90;;;9.30;90.40;;;;;;6160537;28;20473;-78
2022/01/24 12:17:50;;;;;;;17.60;13.82;;;9.50;91.00;;;;;;6159937;28;20035;-77
2022/01/24 12:21:13;;;;;;;18.58;12.55;;;9.40;91.00;;;;;;6161132;28;20046;-78
2022/01/24 12:24:14;;;;;;;24.50;12.75;;;9.60;92.90;;;;;;6160495;28;20057;-78
2022/01/24 12:27:14;;;;;;;16.90;13.02;;;9.50;91.50;;;;;;6160168;28;20492;-78
2022/01/24 12:30:18;;;;;;;19.45;12.88;;;9.50;91.60;;;;;;6160249;28;20394;-79
2022/01/24 12:33:39;;;;;;;16.25;12.40;;;9.40;91.60;;;;;;6160730;28;20027;-79
2022/01/24 12:36:50;;;;;;;15.10;12.07;;;9.20;91.90;;;;;;6160631;28;20540;-78
2022/01/24 12:39:57;;;;;;;15.82;11.63;;;9.10;92.00;;;;;;6177856;28;20504;-80
2022/01/24 12:43:04;;;;;;;15.55;11.80;;;8.90;92.50;;;;;;6160440;28;20027;-78
2022/01/24 12:46:19;;;;;;;14.77;11.80;;;8.90;92.70;;;;;;6161363;28;20495;-79
2022/01/24 12:49:19;;;;;;;18.85;12.68;;;8.90;93.00;;;;;;6161546;28;20035;-79
2022/01/24 12:52:26;;;;;;;16.63;12.15;;;8.70;93.40;;;;;;6160358;28;20031;-80
2022/01/24 12:55:26;;;;;;;17.17;12.02;;;8.70;93.70;;;;;;6144341;28;20042;-79
2022/01/24 12:58:54;;;;;;;19.17;12.60;;;8.80;93.60;;;;;;6160497;28;20136;-80
2022/01/24 13:01:57;;;;;;;20.00;12.88;;;8.60;93.90;;;;;;6157307;28;20069;-78
2022/01/24 13:05:09;;;;;;;17.20;12.35;;;8.50;94.40;;;;;;6144446;28;20154;-78
2022/01/24 13:08:14;;;;;;;15.35;12.38;;;8.50;94.50;;;;;;6139563;28;20453;-78
2022/01/24 13:11:15;;;;;;;15.77;11.85;;;8.40;95.00;;;;;;6156077;28;20054;-80
2022/01/24 13:14:22;;;;;;;15.35;11.52;;;8.30;94.90;;;;;;6140243;28;20031;-81
2022/01/24 13:21:08;;;;;;;15.95;11.63;;;8.10;95.50;;;;;;6158695;28;20039;-80
2022/01/24 13:24:09;;;;;;;16.85;12.07;;;8.00;96.30;;;;;;6159766;28;20427;-79
2022/01/24 13:27:09;;;;;;;16.83;11.95;;;8.00;96.80;;;;;;6155712;28;20070;-79
2022/01/24 13:30:13;;;;;;;17.85;12.50;;;8.00;96.80;;;;;;6155882;28;20532;-80
2022/01/24 13:33:19;;;;;;;16.48;12.40;;;8.00;97.00;;;;;;6155467;28;20041;-80
2022/01/24 13:36:21;;;;;;;15.30;12.35;;;7.90;97.20;;;;;;6156219;28;20109;-80
2022/01/24 13:39:21;;;;;;;17.58;11.38;;;8.00;97.20;;;;;;6155518;28;20046;-81
2022/01/24 13:42:22;;;;;;;15.65;11.95;;;8.00;96.90;;;;;;6139591;28;20031;-80
2022/01/24 13:45:23;;;;;;;15.07;12.30;;;8.40;97.20;;;;;;6155931;28;20362;-80
2022/01/24 13:48:24;;;;;;;16.00;12.07;;;8.30;97.40;;;;;;6155815;28;20053;-80
2022/01/24 13:51:26;;;;;;;14.13;12.02;;;7.90;97.20;;;;;;6155318;28;20042;-80
2022/01/24 13:54:29;;;;;;;16.35;12.68;;;7.90;97.00;;;;;;6138856;28;20039;-80
2022/01/24 13:57:29;;;;;;;;;;;7.90;97.50;;;;;;6154832;28;20042;-79
2022/01/24 14:00:30;;;;;;;18.45;12.23;;;7.80;97.50;;;;;;6138360;28;19910;-80
2022/01/24 14:03:30;;;;;;;17.13;12.15;;;7.80;98.10;;;;;;6154848;28;20098;-80
2022/01/24 14:06:32;;;;;;;16.40;12.85;;;7.70;98.20;;;;;;6154812;28;20466;-80
2022/01/24 14:09:41;;;;;;;17.83;12.73;;;7.50;98.30;;;;;;6138618;28;20042;-81
2022/01/24 14:13:02;;;;;;;15.80;12.32;;;7.40;99.00;;;;;;6155169;28;20065;-80
2022/01/24 14:16:09;;;;;;;18.00;12.55;;;7.40;99.40;;;;;;6171618;28;20382;-80
2022/01/24 14:19:09;;;;;;;17.73;12.27;;;7.40;99.60;;;;;;6154165;28;20378;-80
2022/01/24 14:22:14;;;;;;;19.70;12.25;;;7.90;99.50;;;;;;6154350;28;20118;-80
2022/01/24 14:25:26;;;;;;;14.98;11.90;;;7.20;99.90;;;;;;6154426;28;20022;-80
2022/01/24 14:28:26;;;;;;;15.18;11.65;;;7.20;99.90;;;;;;6138451;28;20038;-80
2022/01/24 14:31:27;;;;;;;18.98;12.88;;;7.10;99.90;;;;;;6154341;28;20046;-81
2022/01/24 14:34:28;;;;;;;17.23;12.43;;;7.10;99.90;;;;;;6138294;28;20030;-80
2022/01/24 14:38:05;;;;;;;16.20;11.73;;;6.90;99.90;;;;;;6154203;28;20023;-83
2022/01/24 14:41:09;;;;;;;16.35;12.25;;;6.80;99.90;;;;;;6104692;29;20028;-80
2022/01/24 14:47:30;;;;;;;16.15;12.40;;;6.70;99.90;;;;;;6118292;29;20115;-78
2022/01/24 14:50:32;;;;;;;17.20;12.55;;;6.70;99.90;;;;;;6120255;29;20073;-80
2022/01/24 14:53:34;;;;;;;17.25;12.10;;;6.50;99.90;;;;;;6120506;29;20605;-80
2022/01/24 14:56:36;;;;;;;18.13;11.63;;;6.40;99.90;;;;;;6118879;29;20038;-80
2022/01/24 14:59:38;;;;;;;18.75;13.15;;;6.30;99.90;;;;;;6088804;29;20040;-81
2022/01/24 15:02:38;;;;;;;16.50;12.40;;;6.30;99.90;;;;;;6104074;29;20036;-79
2022/01/24 15:05:39;;;;;;;19.08;11.88;;;6.20;99.90;;;;;;6103569;29;20534;-79
2022/01/24 15:08:41;;;;;;;15.27;11.68;;;6.20;99.90;;;;;;6119345;29;20062;-82
2022/01/24 15:11:42;;;;;;;17.60;11.90;;;6.10;99.90;;;;;;6119703;29;20483;-80
2022/01/24 15:14:46;;;;;;;17.45;12.20;;;6.00;99.90;;;;;;6116951;29;20489;-80
2022/01/24 15:24:27;;;;;;;17.63;12.65;;;5.80;99.90;;;;;;6146770;28;20462;-77
2022/01/24 15:27:27;;;;;;;19.33;13.13;;;5.80;99.90;;;;;;6132046;28;20382;-80
2022/01/24 15:30:28;;;;;;;17.65;13.75;;;6.30;99.90;;;;;;6144741;28;20054;-80
2022/01/24 15:33:28;;;;;;;20.73;17.10;;;5.60;99.90;;;;;;6129294;28;20055;-80
2022/01/24 15:36:29;;;;;;;24.10;17.90;;;5.50;99.90;;;;;;6145078;29;20039;-80
2022/01/24 15:39:31;;;;;;;63.53;41.53;;;5.40;99.90;;;;;;6145581;29;20035;-79
2022/01/24 15:43:27;;;;;;;20.13;14.20;;;5.60;99.90;;;;;;6145175;28;20037;-78
2022/01/24 15:46:00;;;;;;;19.10;13.98;;;5.60;99.90;;;;;;6134699;29;20436;-80
2022/01/24 15:49:01;;;;;;;17.13;13.05;;;5.40;99.90;;;;;;6145178;28;20110;-79
2022/01/24 15:52:02;;;;;;;18.75;11.35;;;5.30;99.90;;;;;;6145205;29;20034;-79
2022/01/24 15:55:06;;;;;;;23.10;11.60;;;5.30;99.90;;;;;;6145127;28;20058;-79
2022/01/24 15:58:07;;;;;;;18.30;11.32;;;5.40;99.90;;;;;;6129038;29;20382;-79
2022/01/24 16:01:07;;;;;;;15.73;10.60;;;5.30;99.90;;;;;;6144748;28;20043;-80
2022/01/24 16:04:08;;;;;;;14.73;11.07;;;5.20;99.90;;;;;;6145033;29;20028;-79
2022/01/24 16:07:09;;;;;;;17.33;10.90;;;5.30;99.90;;;;;;6128673;29;20035;-78
2022/01/24 16:10:11;;;;;;;16.23;11.45;;;4.60;99.90;;;;;;6145034;29;20066;-79
2022/01/24 16:13:12;;;;;;;16.60;11.27;;;4.40;99.90;;;;;;6144862;28;20051;-78
2022/01/24 16:16:14;;;;;;;20.45;11.52;;;4.50;99.90;;;;;;6144695;28;20042;-79
2022/01/24 16:19:16;;;;;;;18.00;12.48;;;4.10;99.90;;;;;;6144118;29;20425;-80
2022/01/24 16:22:31;;;;;;;18.83;12.80;;;3.90;99.90;;;;;;6142724;29;20027;-80
2022/01/24 16:25:34;;;;;;;21.35;12.85;;;3.80;99.90;;;;;;6145076;28;20741;-77
2022/01/24 16:28:35;;;;;;;20.88;13.52;;;3.40;99.90;;;;;;6128004;29;20031;-79
2022/01/24 16:31:35;;;;;;;22.77;15.13;;;4.30;99.90;;;;;;6128584;29;20055;-79
2022/01/24 16:34:36;;;;;;;25.48;17.45;;;3.20;99.90;;;;;;6144402;29;20508;-79
2022/01/24 16:37:37;;;;;;;25.98;17.70;;;3.70;99.90;;;;;;6144414;29;20051;-79
2022/01/24 16:40:47;;;;;;;23.75;16.00;;;3.10;99.90;;;;;;6144686;28;20035;-80
2022/01/24 16:47:06;;;;;;;26.00;18.00;;;4.50;99.90;;;;;;6149277;29;20883;-78
2022/01/24 16:50:07;;;;;;;26.52;18.08;;;2.80;99.90;;;;;;6149023;29;20039;-80
2022/01/24 16:53:13;;;;;;;29.83;18.55;;;2.80;99.90;;;;;;6148736;28;20055;-80
2022/01/24 16:56:14;;;;;;;28.15;17.52;;;3.70;99.90;;;;;;6149041;29;20074;-79
2022/01/24 16:59:14;;;;;;;28.55;18.08;;;3.80;99.90;;;;;;6149483;28;20537;-82
2022/01/24 17:02:15;;;;;;;31.25;18.25;;;2.70;99.90;;;;;;6132883;29;20466;-78
2022/01/24 17:05:15;;;;;;;28.35;17.77;;;2.40;99.90;;;;;;6132530;28;21164;-80
2022/01/24 17:08:17;;;;;;;33.20;19.02;;;2.00;99.90;;;;;;6148770;28;20027;-78
2022/01/24 17:11:17;;;;;;;29.27;18.38;;;2.40;99.90;;;;;;6148455;28;20081;-77
2022/01/24 17:14:19;;;;;;;27.77;19.95;;;2.30;99.90;;;;;;6132223;29;20031;-79
2022/01/24 17:17:19;;;;;;;26.27;18.17;;;3.30;99.90;;;;;;6147711;28;20143;-78
2022/01/24 17:20:20;;;;;;;37.13;24.27;;;3.70;99.90;;;;;;6147660;29;20491;-79
2022/01/24 17:23:21;;;;;;;29.42;18.00;;;1.80;99.90;;;;;;6148143;28;20027;-79
2022/01/24 17:26:21;;;;;;;24.90;16.75;;;1.90;99.90;;;;;;6148011;29;20209;-78
2022/01/24 17:29:22;;;;;;;25.75;16.75;;;3.20;99.90;;;;;;6148389;28;20043;-78
2022/01/24 17:32:23;;;;;;;28.10;19.02;;;3.10;99.90;;;;;;6148013;28;20469;-79
2022/01/24 17:35:24;;;;;;;31.15;19.48;;;2.70;99.90;;;;;;6132009;28;20090;-77
2022/01/24 17:38:25;;;;;;;26.52;16.65;;;2.50;99.90;;;;;;6147750;28;20545;-79
2022/01/24 17:41:26;;;;;;;29.63;17.08;;;1.50;99.90;;;;;;6147442;29;20620;-79
2022/01/24 17:44:27;;;;;;;25.73;16.58;;;1.60;99.90;;;;;;6147764;28;20034;-80